sensor_id;sensor_type;location;lat;lon;timestamp;temperature;humidity
37874;DHT22;23709;48.078;11.684;2022-11-06T00:01:17;5.20;99.90
37874;DHT22;23709;48.078;11.684;2022-11-06T00:03:54;5.30;99.90
37874;DHT22;23709;48.078;11.684;2022-11-06T00:06:26;5.30;99.90
37874;DHT22;23709;48.078;11.684;2022-11-06T00:09:19;5.30;99.90
37874;DHT22;23709;48.078;11.684;2022-11-06T00:11:51;5.10;99.90
37874;DHT22;23709;48.078;11.684;2022-11-06T00:14:24;5.00;99.90
37874;DHT22;23709;48.078;11.684;2022-11-06T00:16:56;4.90;99.90
37874;DHT22;23709;48.078;11.684;2022-11-06T00:19:28;4.90;99.90
37874;DHT22;23709;48.078;11.684;2022-11-06T00:22:00;4.90;99.90
37874;DHT22;23709;48.078;11.684;2022-11-06T00:24:33;4.90;99.90
37874;DHT22;23709;48.078;11.684;2022-11-06T00:27:05;4.90;99.90
37874;DHT22;23709;48.078;11.684;2022-11-06T00:29:37;4.90;99.90
37874;DHT22;23709;48.078;11.684;2022-11-06T00:32:09;5.00;99.90
37874;DHT22;23709;48.078;11.684;2022-11-06T00:34:41;5.00;99.90
37874;DHT22;23709;48.078;11.684;2022-11-06T00:37:13;4.90;99.90
37874;DHT22;23709;48.078;11.684;2022-11-06T00:39:45;4.80;99.90
37874;DHT22;23709;48.078;11.684;2022-11-06T00:42:17;4.80;99.90
37874;DHT22;23709;48.078;11.684;2022-11-06T00:44:49;4.80;99.90
37874;DHT22;23709;48.078;11.684;2022-11-06T00:47:21;4.70;99.90
37874;DHT22;23709;48.078;11.684;2022-11-06T00:49:54;4.70;99.90
37874;DHT22;23709;48.078;11.684;2022-11-06T00:52:28;4.70;99.90
37874;DHT22;23709;48.078;11.684;2022-11-06T00:55:00;4.70;99.90
37874;DHT22;23709;48.078;11.684;2022-11-06T00:57:32;4.60;99.90
37874;DHT22;23709;48.078;11.684;2022-11-06T01:00:05;4.60;99.90
37874;DHT22;23709;48.078;11.684;2022-11-06T01:02:38;4.50;99.90
37874;DHT22;23709;48.078;11.684;2022-11-06T01:05:11;4.50;99.90
37874;DHT22;23709;48.078;11.684;2022-11-06T01:07:43;4.50;99.90
37874;DHT22;23709;48.078;11.684;2022-11-06T01:10:15;4.60;99.90
37874;DHT22;23709;48.078;11.684;2022-11-06T01:12:47;4.50;99.90
37874;DHT22;23709;48.078;11.684;2022-11-06T01:15:20;4.50;99.90
37874;DHT22;23709;48.078;11.684;2022-11-06T01:17:52;4.50;99.90
37874;DHT22;23709;48.078;11.684;2022-11-06T01:20:24;4.50;99.90
37874;DHT22;23709;48.078;11.684;2022-11-06T01:22:56;4.50;99.90
37874;DHT22;23709;48.078;11.684;2022-11-06T01:25:28;4.50;99.90
37874;DHT22;23709;48.078;11.684;2022-11-06T01:28:00;4.60;99.90
37874;DHT22;23709;48.078;11.684;2022-11-06T01:30:35;4.50;99.90
37874;DHT22;23709;48.078;11.684;2022-11-06T01:33:08;4.60;99.90
37874;DHT22;23709;48.078;11.684;2022-11-06T01:35:47;4.50;99.90
37874;DHT22;23709;48.078;11.684;2022-11-06T01:38:19;4.60;99.90
37874;DHT22;23709;48.078;11.684;2022-11-06T01:40:52;4.50;99.90
37874;DHT22;23709;48.078;11.684;2022-11-06T01:46:18;4.50;99.90
37874;DHT22;23709;48.078;11.684;2022-11-06T01:48:53;4.50;99.90
37874;DHT22;23709;48.078;11.684;2022-11-06T01:51:28;4.50;99.90
37874;DHT22;23709;48.078;11.684;2022-11-06T01:54:06;4.50;99.90
37874;DHT22;23709;48.078;11.684;2022-11-06T01:56:40;4.50;99.90
37874;DHT22;23709;48.078;11.684;2022-11-06T01:59:15;4.50;99.90
37874;DHT22;23709;48.078;11.684;2022-11-06T02:01:49;4.50;99.90
37874;DHT22;23709;48.078;11.684;2022-11-06T02:04:25;4.40;99.90
37874;DHT22;23709;48.078;11.684;2022-11-06T02:06:58;4.40;99.90
37874;DHT22;23709;48.078;11.684;2022-11-06T02:09:32;4.40;99.90
37874;DHT22;23709;48.078;11.684;2022-11-06T02:12:13;4.40;99.90
37874;DHT22;23709;48.078;11.684;2022-11-06T02:15:14;4.40;99.90
37874;DHT22;23709;48.078;11.684;2022-11-06T02:18:47;4.30;99.90
37874;DHT22;23709;48.078;11.684;2022-11-06T02:27:01;4.10;99.90
37874;DHT22;23709;48.078;11.684;2022-11-06T02:29:44;4.20;99.90
37874;DHT22;23709;48.078;11.684;2022-11-06T02:32:27;4.10;99.90
37874;DHT22;23709;48.078;11.684;2022-11-06T02:35:01;4.00;99.90
37874;DHT22;23709;48.078;11.684;2022-11-06T02:37:38;4.00;99.90
37874;DHT22;23709;48.078;11.684;2022-11-06T02:40:12;4.00;99.90
37874;DHT22;23709;48.078;11.684;2022-11-06T02:42:48;4.00;99.90
37874;DHT22;23709;48.078;11.684;2022-11-06T02:45:22;4.00;99.90
37874;DHT22;23709;48.078;11.684;2022-11-06T02:47:57;4.00;99.90
37874;DHT22;23709;48.078;11.684;2022-11-06T02:50:33;3.90;99.90
37874;DHT22;23709;48.078;11.684;2022-11-06T02:53:08;3.90;99.90
37874;DHT22;23709;48.078;11.684;2022-11-06T02:55:46;3.90;99.90
37874;DHT22;23709;48.078;11.684;2022-11-06T02:58:22;3.90;99.90
37874;DHT22;23709;48.078;11.684;2022-11-06T03:01:03;3.70;99.90
37874;DHT22;23709;48.078;11.684;2022-11-06T03:03:40;3.70;99.90
37874;DHT22;23709;48.078;11.684;2022-11-06T03:06:28;3.60;99.90
37874;DHT22;23709;48.078;11.684;2022-11-06T03:09:06;3.60;99.90
37874;DHT22;23709;48.078;11.684;2022-11-06T03:11:40;3.60;99.90
37874;DHT22;23709;48.078;11.684;2022-11-06T03:14:35;3.60;99.90
37874;DHT22;23709;48.078;11.684;2022-11-06T03:17:23;3.50;99.90
37874;DHT22;23709;48.078;11.684;2022-11-06T03:25:55;3.40;99.90
37874;DHT22;23709;48.078;11.684;2022-11-06T03:28:42;3.20;99.90
37874;DHT22;23709;48.078;11.684;2022-11-06T03:31:26;3.30;99.90
37874;DHT22;23709;48.078;11.684;2022-11-06T03:34:04;3.30;99.90
37874;DHT22;23709;48.078;11.684;2022-11-06T03:36:43;3.30;99.90
37874;DHT22;23709;48.078;11.684;2022-11-06T03:39:24;3.30;99.90
37874;DHT22;23709;48.078;11.684;2022-11-06T03:42:03;3.30;99.90
37874;DHT22;23709;48.078;11.684;2022-11-06T03:44:40;3.20;99.90
37874;DHT22;23709;48.078;11.684;2022-11-06T03:50:14;3.20;99.90
37874;DHT22;23709;48.078;11.684;2022-11-06T03:53:14;3.10;99.90
37874;DHT22;23709;48.078;11.684;2022-11-06T03:55:52;3.20;99.90
37874;DHT22;23709;48.078;11.684;2022-11-06T03:58:30;3.10;99.90
37874;DHT22;23709;48.078;11.684;2022-11-06T04:01:06;2.90;99.90
37874;DHT22;23709;48.078;11.684;2022-11-06T04:03:54;2.80;99.90
37874;DHT22;23709;48.078;11.684;2022-11-06T04:06:39;2.80;99.90
37874;DHT22;23709;48.078;11.684;2022-11-06T04:09:15;2.80;99.90
37874;DHT22;23709;48.078;11.684;2022-11-06T04:12:08;2.80;99.90
37874;DHT22;23709;48.078;11.684;2022-11-06T04:15:01;2.90;99.90
37874;DHT22;23709;48.078;11.684;2022-11-06T04:17:34;2.90;99.90
37874;DHT22;23709;48.078;11.684;2022-11-06T04:20:10;2.90;99.90
37874;DHT22;23709;48.078;11.684;2022-11-06T04:23:16;2.90;99.90
37874;DHT22;23709;48.078;11.684;2022-11-06T04:26:20;2.80;99.90
37874;DHT22;23709;48.078;11.684;2022-11-06T04:30:06;2.80;99.90
37874;DHT22;23709;48.078;11.684;2022-11-06T04:32:19;2.80;99.90
37874;DHT22;23709;48.078;11.684;2022-11-06T04:41:16;2.70;99.90
37874;DHT22;23709;48.078;11.684;2022-11-06T04:44:14;2.60;99.90
37874;DHT22;23709;48.078;11.684;2022-11-06T04:46:55;2.60;99.90
37874;DHT22;23709;48.078;11.684;2022-11-06T04:49:31;2.70;99.90
37874;DHT22;23709;48.078;11.684;2022-11-06T04:52:07;2.70;99.90
37874;DHT22;23709;48.078;11.684;2022-11-06T04:54:40;2.70;99.90
37874;DHT22;23709;48.078;11.684;2022-11-06T04:57:13;2.70;99.90
37874;DHT22;23709;48.078;11.684;2022-11-06T04:59:45;2.70;99.90
37874;DHT22;23709;48.078;11.684;2022-11-06T05:02:17;2.70;99.90
37874;DHT22;23709;48.078;11.684;2022-11-06T05:04:49;2.70;99.90
37874;DHT22;23709;48.078;11.684;2022-11-06T05:07:22;2.60;99.90
37874;DHT22;23709;48.078;11.684;2022-11-06T05:09:54;2.50;99.90
37874;DHT22;23709;48.078;11.684;2022-11-06T05:12:26;2.60;99.90
37874;DHT22;23709;48.078;11.684;2022-11-06T05:14:58;2.60;99.90
37874;DHT22;23709;48.078;11.684;2022-11-06T05:17:30;2.50;99.90
37874;DHT22;23709;48.078;11.684;2022-11-06T05:20:07;2.50;99.90
37874;DHT22;23709;48.078;11.684;2022-11-06T05:22:40;2.40;99.90
37874;DHT22;23709;48.078;11.684;2022-11-06T05:25:34;2.50;99.90
37874;DHT22;23709;48.078;11.684;2022-11-06T05:28:07;2.40;99.90
37874;DHT22;23709;48.078;11.684;2022-11-06T05:30:39;2.40;99.90
37874;DHT22;23709;48.078;11.684;2022-11-06T05:33:11;2.40;99.90
37874;DHT22;23709;48.078;11.684;2022-11-06T05:35:43;2.30;99.90
37874;DHT22;23709;48.078;11.684;2022-11-06T05:38:16;2.30;99.90
37874;DHT22;23709;48.078;11.684;2022-11-06T05:40:48;2.20;99.90
37874;DHT22;23709;48.078;11.684;2022-11-06T05:43:20;2.20;99.90
37874;DHT22;23709;48.078;11.684;2022-11-06T05:45:52;2.20;99.90
37874;DHT22;23709;48.078;11.684;2022-11-06T05:48:26;2.20;99.90
37874;DHT22;23709;48.078;11.684;2022-11-06T05:51:05;2.20;99.90
37874;DHT22;23709;48.078;11.684;2022-11-06T05:53:37;2.10;99.90
37874;DHT22;23709;48.078;11.684;2022-11-06T05:56:09;2.20;99.90
37874;DHT22;23709;48.078;11.684;2022-11-06T05:58:42;2.20;99.90
37874;DHT22;23709;48.078;11.684;2022-11-06T06:01:14;2.20;99.90
37874;DHT22;23709;48.078;11.684;2022-11-06T06:03:46;2.10;99.90
37874;DHT22;23709;48.078;11.684;2022-11-06T06:06:18;2.20;99.90
37874;DHT22;23709;48.078;11.684;2022-11-06T06:08:51;2.30;99.90
37874;DHT22;23709;48.078;11.684;2022-11-06T06:11:23;2.40;99.90
37874;DHT22;23709;48.078;11.684;2022-11-06T06:13:55;2.40;99.90
37874;DHT22;23709;48.078;11.684;2022-11-06T06:16:27;2.40;99.90
37874;DHT22;23709;48.078;11.684;2022-11-06T06:19:00;2.30;99.90
37874;DHT22;23709;48.078;11.684;2022-11-06T06:21:32;2.40;99.90
37874;DHT22;23709;48.078;11.684;2022-11-06T06:24:05;2.40;99.90
37874;DHT22;23709;48.078;11.684;2022-11-06T06:26:37;2.40;99.90
37874;DHT22;23709;48.078;11.684;2022-11-06T06:29:09;2.50;99.90
37874;DHT22;23709;48.078;11.684;2022-11-06T06:31:41;2.50;99.90
37874;DHT22;23709;48.078;11.684;2022-11-06T06:34:14;2.50;99.90
37874;DHT22;23709;48.078;11.684;2022-11-06T06:36:50;2.50;99.90
37874;DHT22;23709;48.078;11.684;2022-11-06T06:39:23;2.50;99.90
37874;DHT22;23709;48.078;11.684;2022-11-06T06:41:55;2.50;99.90
37874;DHT22;23709;48.078;11.684;2022-11-06T06:44:27;2.50;99.90
37874;DHT22;23709;48.078;11.684;2022-11-06T06:47:00;2.60;99.90
37874;DHT22;23709;48.078;11.684;2022-11-06T06:49:32;2.60;99.90
37874;DHT22;23709;48.078;11.684;2022-11-06T06:52:04;2.70;99.90
37874;DHT22;23709;48.078;11.684;2022-11-06T06:54:36;2.70;99.90
37874;DHT22;23709;48.078;11.684;2022-11-06T06:57:08;2.70;99.90
37874;DHT22;23709;48.078;11.684;2022-11-06T06:59:41;2.80;99.90
37874;DHT22;23709;48.078;11.684;2022-11-06T07:02:13;2.90;99.90
37874;DHT22;23709;48.078;11.684;2022-11-06T07:04:45;3.00;99.90
37874;DHT22;23709;48.078;11.684;2022-11-06T07:07:17;3.10;99.90
37874;DHT22;23709;48.078;11.684;2022-11-06T07:09:49;3.10;99.90
37874;DHT22;23709;48.078;11.684;2022-11-06T07:12:23;3.30;99.90
37874;DHT22;23709;48.078;11.684;2022-11-06T07:14:55;3.30;99.90
37874;DHT22;23709;48.078;11.684;2022-11-06T07:17:27;3.50;99.90
37874;DHT22;23709;48.078;11.684;2022-11-06T07:19:59;3.60;99.90
37874;DHT22;23709;48.078;11.684;2022-11-06T07:22:32;3.70;99.90
37874;DHT22;23709;48.078;11.684;2022-11-06T07:25:08;3.80;99.90
37874;DHT22;23709;48.078;11.684;2022-11-06T07:27:40;3.90;99.90
37874;DHT22;23709;48.078;11.684;2022-11-06T07:30:12;4.00;99.90
37874;DHT22;23709;48.078;11.684;2022-11-06T07:32:45;4.10;99.90
37874;DHT22;23709;48.078;11.684;2022-11-06T07:35:17;4.20;99.90
37874;DHT22;23709;48.078;11.684;2022-11-06T07:37:49;4.20;99.90
37874;DHT22;23709;48.078;11.684;2022-11-06T07:40:21;4.30;99.90
37874;DHT22;23709;48.078;11.684;2022-11-06T07:42:53;4.40;99.90
37874;DHT22;23709;48.078;11.684;2022-11-06T07:45:25;4.50;99.90
37874;DHT22;23709;48.078;11.684;2022-11-06T07:47:58;4.60;99.90
37874;DHT22;23709;48.078;11.684;2022-11-06T07:50:30;4.70;99.90
37874;DHT22;23709;48.078;11.684;2022-11-06T07:53:03;4.70;99.90
37874;DHT22;23709;48.078;11.684;2022-11-06T07:55:35;4.80;99.90
37874;DHT22;23709;48.078;11.684;2022-11-06T07:58:13;4.80;99.90
37874;DHT22;23709;48.078;11.684;2022-11-06T08:00:53;4.90;99.90
37874;DHT22;23709;48.078;11.684;2022-11-06T08:03:26;5.00;99.90
37874;DHT22;23709;48.078;11.684;2022-11-06T08:06:03;5.10;99.90
37874;DHT22;23709;48.078;11.684;2022-11-06T08:08:38;5.20;99.90
37874;DHT22;23709;48.078;11.684;2022-11-06T08:11:10;5.30;99.90
37874;DHT22;23709;48.078;11.684;2022-11-06T08:13:42;5.40;99.90
37874;DHT22;23709;48.078;11.684;2022-11-06T08:16:15;5.50;99.90
37874;DHT22;23709;48.078;11.684;2022-11-06T08:18:47;5.60;99.90
37874;DHT22;23709;48.078;11.684;2022-11-06T08:21:19;5.70;99.90
37874;DHT22;23709;48.078;11.684;2022-11-06T08:23:52;5.80;99.90
37874;DHT22;23709;48.078;11.684;2022-11-06T08:26:25;5.90;99.90
37874;DHT22;23709;48.078;11.684;2022-11-06T08:28:57;6.00;99.90
37874;DHT22;23709;48.078;11.684;2022-11-06T08:31:29;6.10;99.90
37874;DHT22;23709;48.078;11.684;2022-11-06T08:34:02;6.10;99.90
37874;DHT22;23709;48.078;11.684;2022-11-06T08:36:45;6.20;99.90
37874;DHT22;23709;48.078;11.684;2022-11-06T08:39:20;6.20;99.90
37874;DHT22;23709;48.078;11.684;2022-11-06T08:41:52;6.30;99.90
37874;DHT22;23709;48.078;11.684;2022-11-06T08:44:24;6.50;99.90
37874;DHT22;23709;48.078;11.684;2022-11-06T08:46:56;6.40;99.90
37874;DHT22;23709;48.078;11.684;2022-11-06T08:49:28;6.50;99.90
37874;DHT22;23709;48.078;11.684;2022-11-06T08:52:01;6.50;99.90
37874;DHT22;23709;48.078;11.684;2022-11-06T08:54:33;6.60;99.90
37874;DHT22;23709;48.078;11.684;2022-11-06T08:57:05;6.70;99.90
37874;DHT22;23709;48.078;11.684;2022-11-06T08:59:38;6.70;99.90
37874;DHT22;23709;48.078;11.684;2022-11-06T09:02:11;6.80;99.90
37874;DHT22;23709;48.078;11.684;2022-11-06T09:04:44;6.90;99.90
37874;DHT22;23709;48.078;11.684;2022-11-06T09:07:17;6.90;99.90
37874;DHT22;23709;48.078;11.684;2022-11-06T09:09:49;6.90;99.90
37874;DHT22;23709;48.078;11.684;2022-11-06T09:12:21;7.00;99.90
37874;DHT22;23709;48.078;11.684;2022-11-06T09:14:53;7.00;99.90
37874;DHT22;23709;48.078;11.684;2022-11-06T09:17:25;7.00;99.90
37874;DHT22;23709;48.078;11.684;2022-11-06T09:19:57;7.10;99.90
37874;DHT22;23709;48.078;11.684;2022-11-06T09:22:29;7.20;99.90
37874;DHT22;23709;48.078;11.684;2022-11-06T09:25:01;7.30;99.90
37874;DHT22;23709;48.078;11.684;2022-11-06T09:30:20;7.50;99.90
37874;DHT22;23709;48.078;11.684;2022-11-06T09:32:55;7.60;99.90
37874;DHT22;23709;48.078;11.684;2022-11-06T09:35:29;7.70;99.90
37874;DHT22;23709;48.078;11.684;2022-11-06T09:38:09;7.70;99.90
37874;DHT22;23709;48.078;11.684;2022-11-06T09:40:54;7.70;99.90
37874;DHT22;23709;48.078;11.684;2022-11-06T09:46:44;7.70;99.90
37874;DHT22;23709;48.078;11.684;2022-11-06T09:52:11;7.70;99.90
37874;DHT22;23709;48.078;11.684;2022-11-06T09:54:54;7.70;99.90
37874;DHT22;23709;48.078;11.684;2022-11-06T10:00:06;7.80;99.90
37874;DHT22;23709;48.078;11.684;2022-11-06T10:02:44;7.90;99.90
37874;DHT22;23709;48.078;11.684;2022-11-06T10:05:28;8.00;99.90
37874;DHT22;23709;48.078;11.684;2022-11-06T10:08:11;8.10;99.90
37874;DHT22;23709;48.078;11.684;2022-11-06T10:11:06;8.20;99.90
37874;DHT22;23709;48.078;11.684;2022-11-06T10:14:01;8.40;99.90
37874;DHT22;23709;48.078;11.684;2022-11-06T10:22:14;8.50;99.90
37874;DHT22;23709;48.078;11.684;2022-11-06T10:27:39;8.60;99.90
37874;DHT22;23709;48.078;11.684;2022-11-06T10:30:16;8.70;99.90
37874;DHT22;23709;48.078;11.684;2022-11-06T10:36:01;8.70;99.90
37874;DHT22;23709;48.078;11.684;2022-11-06T10:38:39;8.80;99.90
37874;DHT22;23709;48.078;11.684;2022-11-06T10:41:16;8.90;99.90
37874;DHT22;23709;48.078;11.684;2022-11-06T10:46:42;8.90;99.90
37874;DHT22;23709;48.078;11.684;2022-11-06T10:49:37;9.10;99.90
37874;DHT22;23709;48.078;11.684;2022-11-06T10:52:15;9.20;99.90
37874;DHT22;23709;48.078;11.684;2022-11-06T10:55:30;9.10;99.90
37874;DHT22;23709;48.078;11.684;2022-11-06T10:58:11;9.30;99.90
37874;DHT22;23709;48.078;11.684;2022-11-06T11:00:45;9.40;99.90
37874;DHT22;23709;48.078;11.684;2022-11-06T11:03:43;9.50;99.90
37874;DHT22;23709;48.078;11.684;2022-11-06T11:06:17;9.70;99.90
37874;DHT22;23709;48.078;11.684;2022-11-06T11:08:50;10.00;99.90
37874;DHT22;23709;48.078;11.684;2022-11-06T11:11:27;10.50;99.90
37874;DHT22;23709;48.078;11.684;2022-11-06T11:16:34;11.60;99.90
37874;DHT22;23709;48.078;11.684;2022-11-06T11:19:38;12.90;98.40
37874;DHT22;23709;48.078;11.684;2022-11-06T11:25:05;15.20;84.60
37874;DHT22;23709;48.078;11.684;2022-11-06T11:27:42;14.50;86.30
37874;DHT22;23709;48.078;11.684;2022-11-06T11:30:20;14.00;89.30
37874;DHT22;23709;48.078;11.684;2022-11-06T11:32:54;14.60;86.50
37874;DHT22;23709;48.078;11.684;2022-11-06T11:35:29;16.20;80.90
37874;DHT22;23709;48.078;11.684;2022-11-06T11:38:12;17.10;76.00
37874;DHT22;23709;48.078;11.684;2022-11-06T11:40:45;17.70;73.50
37874;DHT22;23709;48.078;11.684;2022-11-06T11:43:22;18.70;69.50
37874;DHT22;23709;48.078;11.684;2022-11-06T11:48:47;15.50;76.10
37874;DHT22;23709;48.078;11.684;2022-11-06T11:59:46;11.70;92.30
37874;DHT22;23709;48.078;11.684;2022-11-06T12:02:35;11.70;93.50
37874;DHT22;23709;48.078;11.684;2022-11-06T12:05:14;11.50;94.20
37874;DHT22;23709;48.078;11.684;2022-11-06T12:07:57;11.40;95.40
37874;DHT22;23709;48.078;11.684;2022-11-06T12:13:16;11.80;96.00
37874;DHT22;23709;48.078;11.684;2022-11-06T12:16:17;11.70;96.70
37874;DHT22;23709;48.078;11.684;2022-11-06T12:18:51;12.20;96.50
37874;DHT22;23709;48.078;11.684;2022-11-06T12:21:34;11.90;96.60
37874;DHT22;23709;48.078;11.684;2022-11-06T12:24:38;11.90;97.30
37874;DHT22;23709;48.078;11.684;2022-11-06T12:27:22;12.10;96.20
37874;DHT22;23709;48.078;11.684;2022-11-06T12:30:06;11.90;96.80
37874;DHT22;23709;48.078;11.684;2022-11-06T12:35:39;11.50;98.50
37874;DHT22;23709;48.078;11.684;2022-11-06T12:43:48;11.60;97.60
37874;DHT22;23709;48.078;11.684;2022-11-06T12:55:05;11.60;97.40
37874;DHT22;23709;48.078;11.684;2022-11-06T13:06:21;12.80;94.70
37874;DHT22;23709;48.078;11.684;2022-11-06T13:09:18;12.60;94.80
37874;DHT22;23709;48.078;11.684;2022-11-06T13:12:14;12.40;95.20
37874;DHT22;23709;48.078;11.684;2022-11-06T13:23:55;11.40;98.80
37874;DHT22;23709;48.078;11.684;2022-11-06T13:26:36;11.70;97.50
37874;DHT22;23709;48.078;11.684;2022-11-06T13:29:12;11.70;96.90
37874;DHT22;23709;48.078;11.684;2022-11-06T13:31:56;11.60;96.90
37874;DHT22;23709;48.078;11.684;2022-11-06T13:34:33;11.60;96.90
37874;DHT22;23709;48.078;11.684;2022-11-06T13:37:12;11.50;97.20
37874;DHT22;23709;48.078;11.684;2022-11-06T13:42:32;11.80;97.10
37874;DHT22;23709;48.078;11.684;2022-11-06T13:45:07;11.70;96.60
37874;DHT22;23709;48.078;11.684;2022-11-06T13:50:40;11.90;96.70
37874;DHT22;23709;48.078;11.684;2022-11-06T13:59:09;12.80;93.40
37874;DHT22;23709;48.078;11.684;2022-11-06T14:08:06;14.80;86.50
37874;DHT22;23709;48.078;11.684;2022-11-06T14:10:51;15.80;83.10
37874;DHT22;23709;48.078;11.684;2022-11-06T14:13:31;17.80;76.00
37874;DHT22;23709;48.078;11.684;2022-11-06T14:16:24;19.00;70.10
37874;DHT22;23709;48.078;11.684;2022-11-06T14:19:04;20.10;66.60
37874;DHT22;23709;48.078;11.684;2022-11-06T14:24:38;20.20;64.30
37874;DHT22;23709;48.078;11.684;2022-11-06T14:30:05;19.70;65.40
37874;DHT22;23709;48.078;11.684;2022-11-06T14:32:41;19.30;65.70
37874;DHT22;23709;48.078;11.684;2022-11-06T14:40:58;17.20;71.50
37874;DHT22;23709;48.078;11.684;2022-11-06T14:43:32;16.30;73.30
37874;DHT22;23709;48.078;11.684;2022-11-06T14:46:21;15.80;75.40
37874;DHT22;23709;48.078;11.684;2022-11-06T14:49:04;15.40;77.40
37874;DHT22;23709;48.078;11.684;2022-11-06T14:51:37;14.60;79.60
37874;DHT22;23709;48.078;11.684;2022-11-06T14:54:20;14.20;82.10
37874;DHT22;23709;48.078;11.684;2022-11-06T14:56:54;13.50;85.00
37874;DHT22;23709;48.078;11.684;2022-11-06T14:59:36;12.80;88.20
37874;DHT22;23709;48.078;11.684;2022-11-06T15:02:19;12.30;90.60
37874;DHT22;23709;48.078;11.684;2022-11-06T15:05:02;12.00;92.30
37874;DHT22;23709;48.078;11.684;2022-11-06T15:15:51;11.00;99.90
37874;DHT22;23709;48.078;11.684;2022-11-06T15:18:25;10.90;99.90
37874;DHT22;23709;48.078;11.684;2022-11-06T15:21:03;10.80;99.90
37874;DHT22;23709;48.078;11.684;2022-11-06T15:26:24;10.40;99.90
37874;DHT22;23709;48.078;11.684;2022-11-06T15:29:09;10.20;99.90
37874;DHT22;23709;48.078;11.684;2022-11-06T15:31:45;10.00;99.90
37874;DHT22;23709;48.078;11.684;2022-11-06T15:34:31;9.90;99.90
37874;DHT22;23709;48.078;11.684;2022-11-06T15:37:18;9.80;99.90
37874;DHT22;23709;48.078;11.684;2022-11-06T15:39:53;9.60;99.90
37874;DHT22;23709;48.078;11.684;2022-11-06T15:42:35;9.50;99.90
37874;DHT22;23709;48.078;11.684;2022-11-06T15:45:19;9.30;99.90
37874;DHT22;23709;48.078;11.684;2022-11-06T15:47:58;9.10;99.90
37874;DHT22;23709;48.078;11.684;2022-11-06T15:50:31;9.00;99.90
37874;DHT22;23709;48.078;11.684;2022-11-06T15:58:32;8.80;99.90
37874;DHT22;23709;48.078;11.684;2022-11-06T16:01:06;8.70;99.90
37874;DHT22;23709;48.078;11.684;2022-11-06T16:06:16;8.40;99.90
37874;DHT22;23709;48.078;11.684;2022-11-06T16:08:49;8.30;99.90
37874;DHT22;23709;48.078;11.684;2022-11-06T16:11:22;8.20;99.90
37874;DHT22;23709;48.078;11.684;2022-11-06T16:13:55;8.20;99.90
37874;DHT22;23709;48.078;11.684;2022-11-06T16:16:43;8.10;99.90
37874;DHT22;23709;48.078;11.684;2022-11-06T16:19:19;8.00;99.90
37874;DHT22;23709;48.078;11.684;2022-11-06T16:21:59;7.90;99.90
37874;DHT22;23709;48.078;11.684;2022-11-06T16:27:12;7.80;99.90
37874;DHT22;23709;48.078;11.684;2022-11-06T16:29:47;7.70;99.90
37874;DHT22;23709;48.078;11.684;2022-11-06T16:32:23;7.60;99.90
37874;DHT22;23709;48.078;11.684;2022-11-06T16:34:57;7.60;99.90
37874;DHT22;23709;48.078;11.684;2022-11-06T16:37:36;7.60;99.90
37874;DHT22;23709;48.078;11.684;2022-11-06T16:40:46;7.50;99.90
37874;DHT22;23709;48.078;11.684;2022-11-06T16:43:20;7.50;99.90
37874;DHT22;23709;48.078;11.684;2022-11-06T16:48:42;7.30;99.90
37874;DHT22;23709;48.078;11.684;2022-11-06T16:51:31;7.10;99.90
37874;DHT22;23709;48.078;11.684;2022-11-06T16:54:13;7.00;99.90
37874;DHT22;23709;48.078;11.684;2022-11-06T16:56:49;7.00;99.90
37874;DHT22;23709;48.078;11.684;2022-11-06T16:59:25;7.00;99.90
37874;DHT22;23709;48.078;11.684;2022-11-06T17:01:58;7.00;99.90
37874;DHT22;23709;48.078;11.684;2022-11-06T17:04:30;6.90;99.90
37874;DHT22;23709;48.078;11.684;2022-11-06T17:07:03;6.90;99.90
37874;DHT22;23709;48.078;11.684;2022-11-06T17:09:35;6.80;99.90
37874;DHT22;23709;48.078;11.684;2022-11-06T17:12:09;6.80;99.90
37874;DHT22;23709;48.078;11.684;2022-11-06T17:14:43;6.80;99.90
37874;DHT22;23709;48.078;11.684;2022-11-06T17:17:24;6.80;99.90
37874;DHT22;23709;48.078;11.684;2022-11-06T17:19:57;6.80;99.90
37874;DHT22;23709;48.078;11.684;2022-11-06T17:22:29;6.80;99.90
37874;DHT22;23709;48.078;11.684;2022-11-06T17:25:01;6.70;99.90
37874;DHT22;23709;48.078;11.684;2022-11-06T17:27:33;6.70;99.90
37874;DHT22;23709;48.078;11.684;2022-11-06T17:30:12;6.60;99.90
37874;DHT22;23709;48.078;11.684;2022-11-06T17:32:45;6.60;99.90
37874;DHT22;23709;48.078;11.684;2022-11-06T17:35:17;6.70;99.90
37874;DHT22;23709;48.078;11.684;2022-11-06T17:37:49;6.60;99.90
37874;DHT22;23709;48.078;11.684;2022-11-06T17:40:21;6.60;99.90
37874;DHT22;23709;48.078;11.684;2022-11-06T17:42:53;6.60;99.90
37874;DHT22;23709;48.078;11.684;2022-11-06T17:45:26;6.70;99.90
37874;DHT22;23709;48.078;11.684;2022-11-06T17:47:58;6.70;99.90
37874;DHT22;23709;48.078;11.684;2022-11-06T17:50:30;6.70;99.90
37874;DHT22;23709;48.078;11.684;2022-11-06T17:53:22;6.70;99.90
37874;DHT22;23709;48.078;11.684;2022-11-06T17:55:54;6.60;99.90
37874;DHT22;23709;48.078;11.684;2022-11-06T17:58:27;6.60;99.90
37874;DHT22;23709;48.078;11.684;2022-11-06T18:01:09;6.60;99.90
37874;DHT22;23709;48.078;11.684;2022-11-06T18:03:43;6.60;99.90
37874;DHT22;23709;48.078;11.684;2022-11-06T18:06:16;6.60;99.90
37874;DHT22;23709;48.078;11.684;2022-11-06T18:08:48;6.60;99.90
37874;DHT22;23709;48.078;11.684;2022-11-06T18:11:21;6.70;99.90
37874;DHT22;23709;48.078;11.684;2022-11-06T18:13:54;6.60;99.90
37874;DHT22;23709;48.078;11.684;2022-11-06T18:16:29;6.70;99.90
37874;DHT22;23709;48.078;11.684;2022-11-06T18:19:08;6.70;99.90
37874;DHT22;23709;48.078;11.684;2022-11-06T18:21:40;6.80;99.90
37874;DHT22;23709;48.078;11.684;2022-11-06T18:24:13;6.80;99.90
37874;DHT22;23709;48.078;11.684;2022-11-06T18:26:45;6.80;99.90
37874;DHT22;23709;48.078;11.684;2022-11-06T18:29:18;6.80;99.90
37874;DHT22;23709;48.078;11.684;2022-11-06T18:31:51;6.80;99.90
37874;DHT22;23709;48.078;11.684;2022-11-06T18:34:23;6.80;99.90
37874;DHT22;23709;48.078;11.684;2022-11-06T18:36:55;6.80;99.90
37874;DHT22;23709;48.078;11.684;2022-11-06T18:39:27;6.80;99.90
37874;DHT22;23709;48.078;11.684;2022-11-06T18:42:00;6.80;99.90
37874;DHT22;23709;48.078;11.684;2022-11-06T18:44:33;6.90;99.90
37874;DHT22;23709;48.078;11.684;2022-11-06T18:47:08;6.80;99.90
37874;DHT22;23709;48.078;11.684;2022-11-06T18:49:40;6.70;99.90
37874;DHT22;23709;48.078;11.684;2022-11-06T18:52:12;6.80;99.90
37874;DHT22;23709;48.078;11.684;2022-11-06T18:55:03;6.70;99.90
37874;DHT22;23709;48.078;11.684;2022-11-06T18:57:36;6.70;99.90
37874;DHT22;23709;48.078;11.684;2022-11-06T19:00:08;6.70;99.90
37874;DHT22;23709;48.078;11.684;2022-11-06T19:02:44;6.70;99.90
37874;DHT22;23709;48.078;11.684;2022-11-06T19:05:16;6.80;99.90